sensor_id;sensor_type;location;lat;lon;timestamp;P1;durP1;ratioP1;P2;durP2;ratioP2
24761;SDS011;12865;51.934;10.330;2022-12-10T10:40:50;44.10;;;22.27;;
24761;SDS011;12865;51.934;10.330;2022-12-10T10:43:40;48.42;;;23.27;;
24761;SDS011;12865;51.934;10.330;2022-12-10T10:46:27;43.55;;;21.38;;
24761;SDS011;12865;51.934;10.330;2022-12-10T10:49:24;50.45;;;21.83;;
24761;SDS011;12865;51.934;10.330;2022-12-10T10:52:14;48.30;;;23.52;;
24761;SDS011;12865;51.934;10.330;2022-12-10T10:55:01;43.78;;;21.27;;
24761;SDS011;12865;51.934;10.330;2022-12-10T10:57:47;49.28;;;23.63;;
24761;SDS011;12865;51.934;10.330;2022-12-10T11:00:37;52.17;;;24.85;;
24761;SDS011;12865;51.934;10.330;2022-12-10T11:03:23;62.30;;;31.85;;
24761;SDS011;12865;51.934;10.330;2022-12-10T11:06:10;54.38;;;27.23;;
24761;SDS011;12865;51.934;10.330;2022-12-10T11:08:57;61.90;;;30.55;;
24761;SDS011;12865;51.934;10.330;2022-12-10T11:11:43;73.78;;;37.40;;
24761;SDS011;12865;51.934;10.330;2022-12-10T11:14:39;70.55;;;33.90;;
24761;SDS011;12865;51.934;10.330;2022-12-10T11:17:29;65.35;;;30.17;;
24761;SDS011;12865;51.934;10.330;2022-12-10T11:23:09;58.22;;;29.13;;
24761;SDS011;12865;51.934;10.330;2022-12-10T11:32:45;54.22;;;26.27;;
24761;SDS011;12865;51.934;10.330;2022-12-10T11:42:10;54.42;;;25.90;;
24761;SDS011;12865;51.934;10.330;2022-12-10T11:48:14;61.67;;;29.40;;
24761;SDS011;12865;51.934;10.330;2022-12-10T12:09:01;48.50;;;22.60;;
24761;SDS011;12865;51.934;10.330;2022-12-10T12:15:28;47.13;;;23.63;;
24761;SDS011;12865;51.934;10.330;2022-12-10T12:18:23;43.00;;;22.73;;
24761;SDS011;12865;51.934;10.330;2022-12-10T12:21:25;49.40;;;23.60;;
24761;SDS011;12865;51.934;10.330;2022-12-10T12:30:20;47.55;;;23.95;;
24761;SDS011;12865;51.934;10.330;2022-12-10T12:33:11;46.50;;;23.70;;
24761;SDS011;12865;51.934;10.330;2022-12-10T12:36:22;44.17;;;23.67;;
24761;SDS011;12865;51.934;10.330;2022-12-10T12:42:21;50.35;;;23.02;;
24761;SDS011;12865;51.934;10.330;2022-12-10T12:45:19;54.63;;;25.43;;
24761;SDS011;12865;51.934;10.330;2022-12-10T12:54:10;55.03;;;26.60;;
24761;SDS011;12865;51.934;10.330;2022-12-10T12:57:06;58.90;;;25.52;;
24761;SDS011;12865;51.934;10.330;2022-12-10T13:00:19;55.88;;;26.60;;
24761;SDS011;12865;51.934;10.330;2022-12-10T13:17:36;59.83;;;28.48;;
24761;SDS011;12865;51.934;10.330;2022-12-10T13:26:21;56.25;;;28.85;;
24761;SDS011;12865;51.934;10.330;2022-12-10T13:32:18;59.60;;;29.30;;
24761;SDS011;12865;51.934;10.330;2022-12-10T13:38:03;63.35;;;30.98;;
24761;SDS011;12865;51.934;10.330;2022-12-10T13:41:03;59.95;;;31.05;;
24761;SDS011;12865;51.934;10.330;2022-12-10T13:47:27;64.57;;;31.10;;
24761;SDS011;12865;51.934;10.330;2022-12-10T13:50:24;70.10;;;30.45;;
24761;SDS011;12865;51.934;10.330;2022-12-10T13:53:28;71.32;;;31.92;;
24761;SDS011;12865;51.934;10.330;2022-12-10T13:56:29;73.75;;;31.75;;
24761;SDS011;12865;51.934;10.330;2022-12-10T13:59:26;77.70;;;34.70;;
24761;SDS011;12865;51.934;10.330;2022-12-10T14:05:21;74.90;;;32.50;;
24761;SDS011;12865;51.934;10.330;2022-12-10T14:08:17;68.35;;;34.38;;
24761;SDS011;12865;51.934;10.330;2022-12-10T14:11:06;80.00;;;44.35;;
24761;SDS011;12865;51.934;10.330;2022-12-10T14:14:02;74.50;;;35.40;;
24761;SDS011;12865;51.934;10.330;2022-12-10T14:16:50;71.10;;;34.33;;
24761;SDS011;12865;51.934;10.330;2022-12-10T14:19:36;72.93;;;33.45;;
24761;SDS011;12865;51.934;10.330;2022-12-10T14:22:44;76.25;;;33.20;;
24761;SDS011;12865;51.934;10.330;2022-12-10T14:25:32;87.30;;;37.97;;
24761;SDS011;12865;51.934;10.330;2022-12-10T14:28:29;75.68;;;33.13;;
24761;SDS011;12865;51.934;10.330;2022-12-10T14:31:17;87.68;;;53.45;;
24761;SDS011;12865;51.934;10.330;2022-12-10T14:34:06;90.68;;;41.20;;
24761;SDS011;12865;51.934;10.330;2022-12-10T14:36:54;92.13;;;48.40;;
24761;SDS011;12865;51.934;10.330;2022-12-10T14:39:42;78.60;;;37.55;;
24761;SDS011;12865;51.934;10.330;2022-12-10T14:42:27;73.18;;;32.28;;
24761;SDS011;12865;51.934;10.330;2022-12-10T14:45:14;71.75;;;34.03;;
24761;SDS011;12865;51.934;10.330;2022-12-10T14:48:00;74.50;;;30.95;;
24761;SDS011;12865;51.934;10.330;2022-12-10T14:50:46;70.20;;;31.27;;
24761;SDS011;12865;51.934;10.330;2022-12-10T14:53:32;90.15;;;41.35;;
24761;SDS011;12865;51.934;10.330;2022-12-10T14:56:31;74.57;;;30.40;;
24761;SDS011;12865;51.934;10.330;2022-12-10T14:59:26;95.70;;;51.90;;
24761;SDS011;12865;51.934;10.330;2022-12-10T15:05:15;70.50;;;32.47;;
24761;SDS011;12865;51.934;10.330;2022-12-10T15:08:05;77.07;;;32.50;;
24761;SDS011;12865;51.934;10.330;2022-12-10T15:11:02;88.32;;;44.80;;
24761;SDS011;12865;51.934;10.330;2022-12-10T15:13:51;65.65;;;31.40;;
24761;SDS011;12865;51.934;10.330;2022-12-10T15:16:41;60.58;;;29.40;;
24761;SDS011;12865;51.934;10.330;2022-12-10T15:25:02;58.95;;;29.77;;
24761;SDS011;12865;51.934;10.330;2022-12-10T15:28:04;59.28;;;27.25;;
24761;SDS011;12865;51.934;10.330;2022-12-10T15:30:50;95.38;;;57.67;;
24761;SDS011;12865;51.934;10.330;2022-12-10T15:33:44;70.78;;;37.88;;
24761;SDS011;12865;51.934;10.330;2022-12-10T15:39:26;85.03;;;46.05;;
24761;SDS011;12865;51.934;10.330;2022-12-10T15:42:36;53.47;;;24.52;;
24761;SDS011;12865;51.934;10.330;2022-12-10T15:45:37;49.25;;;25.70;;
24761;SDS011;12865;51.934;10.330;2022-12-10T15:48:26;55.45;;;28.05;;
24761;SDS011;12865;51.934;10.330;2022-12-10T15:51:14;53.08;;;28.42;;
24761;SDS011;12865;51.934;10.330;2022-12-10T15:53:59;60.83;;;34.88;;
24761;SDS011;12865;51.934;10.330;2022-12-10T15:56:45;55.03;;;27.13;;
24761;SDS011;12865;51.934;10.330;2022-12-10T15:59:31;48.85;;;24.55;;
24761;SDS011;12865;51.934;10.330;2022-12-10T16:02:27;55.13;;;27.42;;
24761;SDS011;12865;51.934;10.330;2022-12-10T16:05:21;57.15;;;32.10;;
24761;SDS011;12865;51.934;10.330;2022-12-10T16:11:15;69.95;;;40.38;;
24761;SDS011;12865;51.934;10.330;2022-12-10T16:14:03;67.00;;;36.10;;
24761;SDS011;12865;51.934;10.330;2022-12-10T16:16:50;60.03;;;29.73;;
24761;SDS011;12865;51.934;10.330;2022-12-10T16:19:35;163.52;;;93.85;;
24761;SDS011;12865;51.934;10.330;2022-12-10T16:22:22;156.30;;;95.38;;
24761;SDS011;12865;51.934;10.330;2022-12-10T16:25:07;75.45;;;48.08;;
24761;SDS011;12865;51.934;10.330;2022-12-10T16:27:53;116.32;;;78.47;;
24761;SDS011;12865;51.934;10.330;2022-12-10T16:30:46;69.53;;;38.88;;
24761;SDS011;12865;51.934;10.330;2022-12-10T16:33:36;77.38;;;41.72;;
24761;SDS011;12865;51.934;10.330;2022-12-10T16:36:22;74.35;;;44.53;;
24761;SDS011;12865;51.934;10.330;2022-12-10T16:39:08;62.60;;;37.22;;
24761;SDS011;12865;51.934;10.330;2022-12-10T16:41:54;54.28;;;28.58;;
24761;SDS011;12865;51.934;10.330;2022-12-10T16:44:40;54.17;;;29.13;;
24761;SDS011;12865;51.934;10.330;2022-12-10T16:47:25;51.70;;;28.95;;
24761;SDS011;12865;51.934;10.330;2022-12-10T16:50:12;58.00;;;29.88;;
24761;SDS011;12865;51.934;10.330;2022-12-10T16:55:26;48.05;;;25.65;;
24761;SDS011;12865;51.934;10.330;2022-12-10T16:58:12;53.22;;;30.05;;
24761;SDS011;12865;51.934;10.330;2022-12-10T17:00:59;52.40;;;29.25;;
24761;SDS011;12865;51.934;10.330;2022-12-10T17:03:47;53.58;;;28.23;;
24761;SDS011;12865;51.934;10.330;2022-12-10T17:06:33;67.18;;;37.38;;
24761;SDS011;12865;51.934;10.330;2022-12-10T17:09:18;58.90;;;28.42;;
24761;SDS011;12865;51.934;10.330;2022-12-10T17:12:05;52.35;;;26.90;;
24761;SDS011;12865;51.934;10.330;2022-12-10T17:14:52;44.38;;;25.05;;
24761;SDS011;12865;51.934;10.330;2022-12-10T17:17:37;42.17;;;22.65;;
24761;SDS011;12865;51.934;10.330;2022-12-10T17:20:24;44.60;;;22.85;;
24761;SDS011;12865;51.934;10.330;2022-12-10T17:23:11;49.60;;;26.48;;
24761;SDS011;12865;51.934;10.330;2022-12-10T17:25:57;41.08;;;23.20;;
24761;SDS011;12865;51.934;10.330;2022-12-10T17:28:46;33.63;;;17.02;;
24761;SDS011;12865;51.934;10.330;2022-12-10T17:31:32;43.67;;;23.15;;
24761;SDS011;12865;51.934;10.330;2022-12-10T17:34:17;45.97;;;23.95;;
24761;SDS011;12865;51.934;10.330;2022-12-10T17:37:08;41.50;;;23.98;;
24761;SDS011;12865;51.934;10.330;2022-12-10T17:39:56;43.55;;;24.77;;
24761;SDS011;12865;51.934;10.330;2022-12-10T17:42:41;42.45;;;23.13;;
24761;SDS011;12865;51.934;10.330;2022-12-10T17:45:27;42.50;;;22.92;;
24761;SDS011;12865;51.934;10.330;2022-12-10T17:48:14;43.95;;;23.52;;
24761;SDS011;12865;51.934;10.330;2022-12-10T17:51:01;46.15;;;23.42;;
24761;SDS011;12865;51.934;10.330;2022-12-10T17:53:47;44.60;;;23.52;;
24761;SDS011;12865;51.934;10.330;2022-12-10T17:56:33;37.15;;;19.40;;
24761;SDS011;12865;51.934;10.330;2022-12-10T17:59:18;39.72;;;20.63;;
24761;SDS011;12865;51.934;10.330;2022-12-10T18:02:04;41.05;;;21.23;;
24761;SDS011;12865;51.934;10.330;2022-12-10T18:04:50;41.63;;;22.10;;
24761;SDS011;12865;51.934;10.330;2022-12-10T18:07:36;45.75;;;21.90;;
24761;SDS011;12865;51.934;10.330;2022-12-10T18:10:23;44.13;;;21.80;;
24761;SDS011;12865;51.934;10.330;2022-12-10T18:13:11;39.53;;;20.50;;
24761;SDS011;12865;51.934;10.330;2022-12-10T18:15:56;41.15;;;21.27;;
24761;SDS011;12865;51.934;10.330;2022-12-10T18:18:42;41.40;;;21.88;;
24761;SDS011;12865;51.934;10.330;2022-12-10T18:21:28;36.47;;;19.45;;
24761;SDS011;12865;51.934;10.330;2022-12-10T18:24:14;39.58;;;19.80;;
24761;SDS011;12865;51.934;10.330;2022-12-10T18:27:00;32.22;;;16.48;;
24761;SDS011;12865;51.934;10.330;2022-12-10T18:29:46;35.78;;;18.98;;
24761;SDS011;12865;51.934;10.330;2022-12-10T18:32:32;33.13;;;18.95;;
24761;SDS011;12865;51.934;10.330;2022-12-10T18:35:18;33.92;;;17.90;;
24761;SDS011;12865;51.934;10.330;2022-12-10T18:38:04;36.10;;;18.40;;
24761;SDS011;12865;51.934;10.330;2022-12-10T18:40:50;38.05;;;20.23;;
24761;SDS011;12865;51.934;10.330;2022-12-10T18:43:35;43.28;;;20.92;;
24761;SDS011;12865;51.934;10.330;2022-12-10T18:46:23;40.75;;;21.92;;
24761;SDS011;12865;51.934;10.330;2022-12-10T18:49:11;35.72;;;19.17;;
24761;SDS011;12865;51.934;10.330;2022-12-10T18:51:58;42.42;;;22.08;;
24761;SDS011;12865;51.934;10.330;2022-12-10T18:54:44;38.53;;;21.10;;
24761;SDS011;12865;51.934;10.330;2022-12-10T18:57:29;44.13;;;24.02;;
24761;SDS011;12865;51.934;10.330;2022-12-10T19:00:17;44.85;;;24.10;;
24761;SDS011;12865;51.934;10.330;2022-12-10T19:03:04;42.78;;;21.55;;
24761;SDS011;12865;51.934;10.330;2022-12-10T19:05:51;37.03;;;19.83;;
24761;SDS011;12865;51.934;10.330;2022-12-10T19:08:36;38.88;;;21.52;;
24761;SDS011;12865;51.934;10.330;2022-12-10T19:11:22;43.15;;;26.05;;
24761;SDS011;12865;51.934;10.330;2022-12-10T19:14:09;51.25;;;28.42;;
24761;SDS011;12865;51.934;10.330;2022-12-10T19:16:55;46.47;;;23.63;;
24761;SDS011;12865;51.934;10.330;2022-12-10T19:19:42;42.42;;;23.70;;
24761;SDS011;12865;51.934;10.330;2022-12-10T19:22:28;44.78;;;24.98;;
24761;SDS011;12865;51.934;10.330;2022-12-10T19:25:14;49.95;;;26.48;;
24761;SDS011;12865;51.934;10.330;2022-12-10T19:28:00;57.92;;;28.48;;
24761;SDS011;12865;51.934;10.330;2022-12-10T19:30:46;45.08;;;24.80;;
24761;SDS011;12865;51.934;10.330;2022-12-10T19:33:31;47.63;;;27.42;;
24761;SDS011;12865;51.934;10.330;2022-12-10T19:36:19;47.92;;;25.70;;
24761;SDS011;12865;51.934;10.330;2022-12-10T19:39:13;48.65;;;25.20;;
24761;SDS011;12865;51.934;10.330;2022-12-10T19:42:04;51.55;;;29.45;;
24761;SDS011;12865;51.934;10.330;2022-12-10T19:44:50;74.10;;;35.95;;
24761;SDS011;12865;51.934;10.330;2022-12-10T19:47:35;61.28;;;31.92;;
24761;SDS011;12865;51.934;10.330;2022-12-10T19:50:22;106.97;;;63.38;;
24761;SDS011;12865;51.934;10.330;2022-12-10T19:53:10;64.40;;;34.88;;
24761;SDS011;12865;51.934;10.330;2022-12-10T19:55:55;53.40;;;27.23;;
24761;SDS011;12865;51.934;10.330;2022-12-10T19:58:41;57.67;;;28.67;;
24761;SDS011;12865;51.934;10.330;2022-12-10T20:01:27;41.40;;;23.88;;
24761;SDS011;12865;51.934;10.330;2022-12-10T20:04:14;47.38;;;25.33;;
24761;SDS011;12865;51.934;10.330;2022-12-10T20:07:01;50.13;;;25.02;;
24761;SDS011;12865;51.934;10.330;2022-12-10T20:09:46;52.47;;;25.38;;
24761;SDS011;12865;51.934;10.330;2022-12-10T20:12:32;48.38;;;26.30;;
24761;SDS011;12865;51.934;10.330;2022-12-10T20:15:19;49.88;;;24.95;;
24761;SDS011;12865;51.934;10.330;2022-12-10T20:18:05;51.90;;;26.90;;
24761;SDS011;12865;51.934;10.330;2022-12-10T20:20:51;47.97;;;27.50;;
24761;SDS011;12865;51.934;10.330;2022-12-10T20:23:37;49.70;;;27.38;;
24761;SDS011;12865;51.934;10.330;2022-12-10T20:26:27;51.13;;;27.50;;
24761;SDS011;12865;51.934;10.330;2022-12-10T20:29:16;53.70;;;26.60;;
24761;SDS011;12865;51.934;10.330;2022-12-10T20:32:03;39.87;;;22.63;;
24761;SDS011;12865;51.934;10.330;2022-12-10T20:34:49;60.78;;;39.05;;
24761;SDS011;12865;51.934;10.330;2022-12-10T20:37:35;51.75;;;29.45;;
24761;SDS011;12865;51.934;10.330;2022-12-10T20:40:21;48.90;;;26.77;;
24761;SDS011;12865;51.934;10.330;2022-12-10T20:43:11;51.78;;;27.75;;
24761;SDS011;12865;51.934;10.330;2022-12-10T20:45:57;54.00;;;29.45;;
24761;SDS011;12865;51.934;10.330;2022-12-10T20:48:42;60.17;;;30.63;;
24761;SDS011;12865;51.934;10.330;2022-12-10T20:51:28;55.80;;;29.45;;
24761;SDS011;12865;51.934;10.330;2022-12-10T20:54:14;58.22;;;29.60;;
24761;SDS011;12865;51.934;10.330;2022-12-10T20:57:00;54.20;;;28.70;;
24761;SDS011;12865;51.934;10.330;2022-12-10T20:59:46;58.10;;;28.73;;
24761;SDS011;12865;51.934;10.330;2022-12-10T21:02:32;58.20;;;29.40;;
24761;SDS011;12865;51.934;10.330;2022-12-10T21:05:17;57.97;;;29.77;;
24761;SDS011;12865;51.934;10.330;2022-12-10T21:08:03;58.80;;;30.13;;
24761;SDS011;12865;51.934;10.330;2022-12-10T21:10:52;54.70;;;28.90;;
24761;SDS011;12865;51.934;10.330;2022-12-10T21:13:41;55.78;;;29.48;;
24761;SDS011;12865;51.934;10.330;2022-12-10T21:16:27;56.88;;;28.58;;
24761;SDS011;12865;51.934;10.330;2022-12-10T21:19:13;47.42;;;25.70;;
24761;SDS011;12865;51.934;10.330;2022-12-10T21:21:59;52.75;;;29.17;;
24761;SDS011;12865;51.934;10.330;2022-12-10T21:24:44;61.55;;;31.63;;
24761;SDS011;12865;51.934;10.330;2022-12-10T21:27:30;63.88;;;32.90;;
24761;SDS011;12865;51.934;10.330;2022-12-10T21:30:16;59.22;;;30.35;;
24761;SDS011;12865;51.934;10.330;2022-12-10T21:33:02;73.10;;;41.50;;
24761;SDS011;12865;51.934;10.330;2022-12-10T21:35:49;60.33;;;31.38;;
24761;SDS011;12865;51.934;10.330;2022-12-10T21:38:35;60.42;;;30.58;;
24761;SDS011;12865;51.934;10.330;2022-12-10T21:41:22;57.13;;;29.70;;
24761;SDS011;12865;51.934;10.330;2022-12-10T21:44:28;66.78;;;34.95;;
24761;SDS011;12865;51.934;10.330;2022-12-10T21:47:14;62.55;;;32.45;;
24761;SDS011;12865;51.934;10.330;2022-12-10T21:49:59;62.63;;;30.77;;
24761;SDS011;12865;51.934;10.330;2022-12-10T21:52:45;53.17;;;27.95;;
24761;SDS011;12865;51.934;10.330;2022-12-10T21:55:33;55.10;;;27.38;;
24761;SDS011;12865;51.934;10.330;2022-12-10T21:58:20;53.55;;;27.35;;
24761;SDS011;12865;51.934;10.330;2022-12-10T22:01:05;51.22;;;26.52;;
24761;SDS011;12865;51.934;10.330;2022-12-10T22:03:52;53.25;;;27.48;;
24761;SDS011;12865;51.934;10.330;2022-12-10T22:06:37;54.75;;;29.05;;
24761;SDS011;12865;51.934;10.330;2022-12-10T22:09:23;57.80;;;30.92;;
24761;SDS011;12865;51.934;10.330;2022-12-10T22:12:09;51.45;;;28.45;;
24761;SDS011;12865;51.934;10.330;2022-12-10T22:14:54;52.33;;;27.90;;
24761;SDS011;12865;51.934;10.330;2022-12-10T22:17:40;51.45;;;29.48;;
24761;SDS011;12865;51.934;10.330;2022-12-10T22:20:26;44.28;;;24.67;;
24761;SDS011;12865;51.934;10.330;2022-12-10T22:23:12;45.50;;;25.00;;
24761;SDS011;12865;51.934;10.330;2022-12-10T22:26:05;42.05;;;24.92;;
24761;SDS011;12865;51.934;10.330;2022-12-10T22:28:53;41.55;;;23.05;;
24761;SDS011;12865;51.934;10.330;2022-12-10T22:31:38;41.92;;;25.58;;
24761;SDS011;12865;51.934;10.330;2022-12-10T22:34:24;47.72;;;26.50;;
24761;SDS011;12865;51.934;10.330;2022-12-10T22:37:10;47.45;;;26.02;;
24761;SDS011;12865;51.934;10.330;2022-12-10T22:39:56;44.78;;;25.13;;
24761;SDS011;12865;51.934;10.330;2022-12-10T22:42:49;45.60;;;25.10;;
24761;SDS011;12865;51.934;10.330;2022-12-10T22:45:40;41.25;;;24.10;;
24761;SDS011;12865;51.934;10.330;2022-12-10T22:48:27;45.67;;;29.95;;
24761;SDS011;12865;51.934;10.330;2022-12-10T22:51:13;42.72;;;25.48;;
24761;SDS011;12865;51.934;10.330;2022-12-10T22:53:59;42.85;;;25.15;;
24761;SDS011;12865;51.934;10.330;2022-12-10T22:56:45;43.30;;;25.70;;
24761;SDS011;12865;51.934;10.330;2022-12-10T22:59:31;42.25;;;25.70;;
24761;SDS011;12865;51.934;10.330;2022-12-10T23:02:17;48.55;;;26.70;;
24761;SDS011;12865;51.934;10.330;2022-12-10T23:05:03;46.00;;;26.27;;
24761;SDS011;12865;51.934;10.330;2022-12-10T23:07:49;45.15;;;25.02;;
24761;SDS011;12865;51.934;10.330;2022-12-10T23:10:35;46.05;;;27.20;;
24761;SDS011;12865;51.934;10.330;2022-12-10T23:13:23;51.10;;;25.90;;
24761;SDS011;12865;51.934;10.330;2022-12-10T23:16:11;46.40;;;26.58;;
24761;SDS011;12865;51.934;10.330;2022-12-10T23:18:59;56.65;;;38.78;;
24761;SDS011;12865;51.934;10.330;2022-12-10T23:21:44;43.83;;;25.70;;
24761;SDS011;12865;51.934;10.330;2022-12-10T23:24:30;42.42;;;25.20;;
24761;SDS011;12865;51.934;10.330;2022-12-10T23:27:16;43.40;;;25.35;;
24761;SDS011;12865;51.934;10.330;2022-12-10T23:30:02;37.58;;;23.38;;
24761;SDS011;12865;51.934;10.330;2022-12-10T23:32:48;41.92;;;24.92;;
24761;SDS011;12865;51.934;10.330;2022-12-10T23:35:38;41.50;;;23.38;;
24761;SDS011;12865;51.934;10.330;2022-12-10T23:38:25;38.72;;;23.98;;
24761;SDS011;12865;51.934;10.330;2022-12-10T23:41:11;39.85;;;23.02;;
24761;SDS011;12865;51.934;10.330;2022-12-10T23:43:57;42.97;;;24.80;;
24761;SDS011;12865;51.934;10.330;2022-12-10T23:46:42;41.03;;;24.58;;
24761;SDS011;12865;51.934;10.330;2022-12-10T23:49:28;44.03;;;23.67;;
24761;SDS011;12865;51.934;10.330;2022-12-10T23:52:14;40.80;;;23.17;;
24761;SDS011;12865;51.934;10.330;2022-12-10T23:55:00;46.13;;;26.80;;
24761;SDS011;12865;51.934;10.330;2022-12-10T23:57:45;42.85;;;24.30;;
